createdAt,value
2022-08-03T00:00:49.738Z,81.07
2022-08-03T00:01:49.730Z,80.57
2022-08-03T00:02:49.791Z,80.78
2022-08-03T00:03:49.701Z,81.07
2022-08-03T00:04:49.685Z,80.57
2022-08-03T00:06:04.236Z,81.48
2022-08-03T00:06:49.659Z,81.58
2022-08-03T00:07:49.743Z,81.78
2022-08-03T00:08:49.646Z,81.48
2022-08-03T00:09:49.619Z,81.48
2022-08-03T00:10:49.605Z,80.87
2022-08-03T00:11:49.594Z,81.12
2022-08-03T00:12:49.578Z,80.92
2022-08-03T00:13:49.569Z,81.01
2022-08-03T00:14:49.553Z,81.35
2022-08-03T00:15:49.541Z,81.46
2022-08-03T00:16:49.526Z,81.46
2022-08-03T00:17:52.081Z,82.16
2022-08-03T00:18:49.499Z,82.47
2022-08-03T00:19:49.488Z,82.50
2022-08-03T00:20:49.473Z,83.11
2022-08-03T00:21:49.462Z,83.21
2022-08-03T00:22:49.450Z,83.31
2022-08-03T00:23:52.106Z,83.25
2022-08-03T00:24:49.420Z,84.26
2022-08-03T00:25:49.410Z,84.26
2022-08-03T00:26:49.394Z,83.89
2022-08-03T00:27:50.433Z,84.10
2022-08-03T00:28:49.375Z,84.50
2022-08-03T00:29:57.624Z,84.60
2022-08-03T00:30:49.342Z,85.41
2022-08-03T00:31:52.581Z,85.62
2022-08-03T00:32:49.317Z,86.22
2022-08-03T00:33:58.959Z,86.32
2022-08-03T00:34:57.595Z,86.73
2022-08-03T00:35:50.745Z,86.93
2022-08-03T00:36:49.264Z,86.73
2022-08-03T00:37:49.252Z,86.83
2022-08-03T00:38:49.237Z,86.93
2022-08-03T00:39:49.225Z,87.43
2022-08-03T00:40:49.209Z,87.34
2022-08-03T00:41:49.199Z,87.17
2022-08-03T00:42:49.184Z,87.28
2022-08-03T00:43:49.177Z,87.48
2022-08-03T00:44:49.159Z,87.68
2022-08-03T00:45:49.146Z,87.78
2022-08-03T00:46:49.131Z,87.37
2022-08-03T00:47:49.119Z,87.57
2022-08-03T00:48:49.107Z,87.17
2022-08-03T00:49:49.095Z,87.17
2022-08-03T00:50:49.079Z,87.48
2022-08-03T00:51:49.069Z,87.92
2022-08-03T00:52:49.053Z,88.43
2022-08-03T00:53:49.041Z,88.43
2022-08-03T00:54:49.026Z,88.73
2022-08-03T00:55:49.015Z,88.73
2022-08-03T00:56:59.521Z,89.14
2022-08-03T00:57:48.989Z,89.44
2022-08-03T00:58:48.977Z,89.44
2022-08-03T00:59:48.963Z,89.34
2022-08-03T01:00:48.991Z,89.34
2022-08-03T01:01:49.016Z,89.54
2022-08-03T01:02:48.921Z,89.91
2022-08-03T01:03:48.911Z,89.91
2022-08-03T01:04:48.895Z,89.70
2022-08-03T01:05:48.886Z,89.50
2022-08-03T01:06:48.872Z,88.99
2022-08-03T01:07:48.859Z,89.40
2022-08-03T01:08:48.843Z,90.11
2022-08-03T01:09:48.831Z,89.80
2022-08-03T01:10:48.816Z,89.05
2022-08-03T01:11:59.946Z,88.89
2022-08-03T01:12:48.789Z,88.95
2022-08-03T01:14:01.261Z,88.59
2022-08-03T01:14:48.766Z,88.08
2022-08-03T01:15:48.755Z,88.08
2022-08-03T01:16:48.739Z,87.88
2022-08-03T01:17:48.724Z,87.98
2022-08-03T01:18:48.713Z,88.89
2022-08-03T01:19:48.698Z,88.63
2022-08-03T01:20:48.687Z,88.83
2022-08-03T01:21:48.672Z,89.03
2022-08-03T01:22:48.665Z,88.43
2022-08-03T01:23:48.645Z,89.64
2022-08-03T01:24:48.635Z,89.94
2022-08-03T01:25:48.620Z,90.15
2022-08-03T01:26:48.608Z,89.74
2022-08-03T01:27:48.594Z,89.14
2022-08-03T01:28:48.581Z,88.83
2022-08-03T01:29:48.568Z,88.53
2022-08-03T01:30:48.556Z,88.53
2022-08-03T01:32:58.715Z,88.73
2022-08-03T01:33:00.126Z,88.53
2022-08-03T01:33:48.517Z,88.73
2022-08-03T01:34:48.502Z,88.73
2022-08-03T01:35:48.489Z,88.39
2022-08-03T01:36:48.477Z,87.98
2022-08-03T01:37:48.461Z,87.43
2022-08-03T01:38:48.452Z,86.73
2022-08-03T01:39:48.436Z,86.42
2022-08-03T01:40:48.424Z,86.73
2022-08-03T01:41:48.410Z,85.82
2022-08-03T01:42:48.397Z,84.71
2022-08-03T01:44:26.463Z,85.21
2022-08-03T01:44:48.370Z,85.35
2022-08-03T01:45:48.356Z,85.66
2022-08-03T01:46:49.061Z,86.37
2022-08-03T01:47:48.329Z,86.71
2022-08-03T01:48:48.320Z,87.01
2022-08-03T01:49:48.397Z,87.46
2022-08-03T01:50:48.292Z,88.98
2022-08-03T01:52:03.161Z,89.18
2022-08-03T01:52:48.267Z,89.08
2022-08-03T01:54:48.240Z,88.87
2022-08-03T01:55:48.228Z,88.41
2022-08-03T01:56:48.212Z,88.00
2022-08-03T01:58:05.604Z,87.70
2022-08-03T01:58:50.187Z,88.31
2022-08-03T01:59:48.172Z,88.61
2022-08-03T02:00:48.230Z,89.06
2022-08-03T02:02:29.016Z,89.06
2022-08-03T02:02:48.185Z,89.16
2022-08-03T02:04:00.645Z,90.17
2022-08-03T02:04:48.107Z,90.88
2022-08-03T02:05:48.093Z,90.88
2022-08-03T02:07:01.528Z,90.88
2022-08-03T02:07:48.067Z,91.69
2022-08-03T02:08:48.056Z,91.69
2022-08-03T02:09:48.040Z,91.49
2022-08-03T02:10:48.029Z,90.88
2022-08-03T02:11:48.016Z,91.29
2022-08-03T02:12:51.065Z,91.04
2022-08-03T02:13:47.987Z,90.44
2022-08-03T02:14:47.977Z,89.73
2022-08-03T02:15:47.960Z,90.03
2022-08-03T02:16:47.949Z,89.83
2022-08-03T02:17:47.934Z,89.48
2022-08-03T02:18:47.923Z,89.38
2022-08-03T02:19:47.908Z,88.98
2022-08-03T02:20:47.895Z,88.57
2022-08-03T02:21:56.652Z,88.47
2022-08-03T02:22:47.868Z,88.47
2022-08-03T02:23:47.853Z,88.98
2022-08-03T02:24:49.327Z,88.57
2022-08-03T02:25:47.827Z,88.87
2022-08-03T02:26:47.815Z,88.41
2022-08-03T02:27:47.800Z,87.29
2022-08-03T02:28:47.789Z,87.90
2022-08-03T02:29:47.774Z,87.80
2022-08-03T02:30:53.707Z,87.90
2022-08-03T02:31:47.748Z,87.84
2022-08-03T02:32:47.741Z,87.74
2022-08-03T02:33:47.719Z,88.04
2022-08-03T02:34:47.708Z,88.35
2022-08-03T02:35:47.693Z,88.45
2022-08-03T02:36:47.681Z,88.90
2022-08-03T02:37:49.844Z,90.02
2022-08-03T02:38:47.655Z,90.22
2022-08-03T02:39:47.640Z,90.62
2022-08-03T02:40:47.633Z,91.13
2022-08-03T02:41:47.613Z,92.24
2022-08-03T02:42:47.605Z,92.44
2022-08-03T02:44:06.600Z,92.20
2022-08-03T02:44:47.624Z,91.29
2022-08-03T02:45:47.559Z,90.58
2022-08-03T02:46:47.547Z,89.26
2022-08-03T02:47:53.470Z,88.35
2022-08-03T02:48:47.521Z,87.44
2022-08-03T02:49:50.598Z,88.25
2022-08-03T02:50:47.492Z,88.80
2022-08-03T02:51:47.477Z,89.20
2022-08-03T02:52:47.467Z,90.22
2022-08-03T02:53:47.451Z,91.07
2022-08-03T02:54:47.439Z,91.63
2022-08-03T02:55:47.424Z,92.35
2022-08-03T02:56:47.413Z,92.49
2022-08-03T02:57:47.398Z,92.39
2022-08-03T02:58:47.384Z,92.49
2022-08-03T02:59:47.371Z,92.49
2022-08-03T03:00:47.417Z,93.10
2022-08-03T03:01:47.344Z,93.51
2022-08-03T03:02:47.332Z,93.95
2022-08-03T03:03:47.318Z,94.16
2022-08-03T03:05:53.145Z,94.26
2022-08-03T03:05:55.202Z,94.46
2022-08-03T03:06:47.278Z,94.36
2022-08-03T03:07:51.983Z,93.85
2022-08-03T03:08:47.251Z,94.06
2022-08-03T03:09:47.237Z,94.87
2022-08-03T03:10:47.225Z,95.07
2022-08-03T03:11:47.209Z,95.11
2022-08-03T03:12:47.197Z,94.71
2022-08-03T03:13:47.183Z,95.11
2022-08-03T03:14:47.171Z,95.52
2022-08-03T03:15:47.157Z,95.72
2022-08-03T03:16:47.146Z,95.62
2022-08-03T03:17:47.129Z,95.62
2022-08-03T03:18:47.118Z,95.72
2022-08-03T03:19:47.101Z,94.95
2022-08-03T03:20:47.091Z,94.86
2022-08-03T03:21:47.075Z,95.26
2022-08-03T03:22:47.063Z,95.97
2022-08-03T03:23:47.050Z,96.48
2022-08-03T03:24:47.039Z,96.48
2022-08-03T03:25:47.022Z,96.48
2022-08-03T03:26:47.010Z,96.48
2022-08-03T03:27:49.429Z,97.09
2022-08-03T03:28:46.983Z,97.50
2022-08-03T03:29:46.969Z,97.70
2022-08-03T03:30:52.572Z,97.86
2022-08-03T03:31:46.942Z,97.86
2022-08-03T03:32:46.932Z,97.76
2022-08-03T03:33:46.918Z,97.39
2022-08-03T03:34:46.906Z,96.89
2022-08-03T03:35:46.894Z,96.58
2022-08-03T03:36:46.878Z,96.42
2022-08-03T03:37:46.863Z,96.32
2022-08-03T03:38:46.853Z,96.63
2022-08-03T03:39:46.837Z,97.13
2022-08-03T03:40:46.827Z,97.34
2022-08-03T03:41:46.812Z,97.54
2022-08-03T03:42:46.802Z,97.65
2022-08-03T03:43:46.784Z,97.74
2022-08-03T03:44:46.774Z,97.74
2022-08-03T03:45:46.759Z,98.05
2022-08-03T03:46:46.751Z,98.21
2022-08-03T03:47:46.733Z,98.62
2022-08-03T03:48:46.720Z,98.71
2022-08-03T03:49:46.706Z,98.62
2022-08-03T03:50:46.694Z,98.41
2022-08-03T03:51:46.682Z,98.62
2022-08-03T03:52:46.667Z,98.51
2022-08-03T03:53:46.652Z,98.71
2022-08-03T03:54:46.640Z,98.67
2022-08-03T03:55:59.723Z,98.77
2022-08-03T03:56:46.614Z,98.62
2022-08-03T03:57:46.599Z,98.51
2022-08-03T03:58:46.588Z,98.62
2022-08-03T03:59:46.574Z,98.77
2022-08-03T04:00:46.602Z,98.26
2022-08-03T04:01:46.547Z,97.65
2022-08-03T04:02:46.537Z,97.35
2022-08-03T04:03:46.519Z,97.35
2022-08-03T04:04:46.508Z,97.35
2022-08-03T04:05:46.497Z,96.94
2022-08-03T04:06:46.481Z,96.99
2022-08-03T04:07:46.465Z,96.89
2022-08-03T04:08:46.455Z,96.38
2022-08-03T04:09:46.439Z,96.28
2022-08-03T04:10:46.427Z,96.17
2022-08-03T04:11:46.412Z,95.61
2022-08-03T04:12:50.540Z,97.13
2022-08-03T04:13:46.385Z,97.80
2022-08-03T04:14:46.374Z,98.21
2022-08-03T04:15:46.359Z,98.51
2022-08-03T04:16:46.347Z,98.41
2022-08-03T04:17:46.331Z,98.41
2022-08-03T04:18:46.320Z,98.06
2022-08-03T04:19:46.303Z,97.96
2022-08-03T04:20:46.292Z,97.45
2022-08-03T04:21:46.276Z,97.04
2022-08-03T04:22:46.265Z,96.84
2022-08-03T04:23:46.250Z,96.44
2022-08-03T04:24:46.240Z,96.64
2022-08-03T04:25:46.223Z,96.53
2022-08-03T04:26:50.866Z,96.33
2022-08-03T04:27:46.196Z,96.23
2022-08-03T04:28:46.187Z,95.98
2022-08-03T04:29:48.373Z,95.37
2022-08-03T04:30:46.157Z,95.17
2022-08-03T04:31:46.151Z,95.27
2022-08-03T04:32:46.130Z,95.07
2022-08-03T04:33:46.116Z,94.31
2022-08-03T04:34:46.103Z,93.81
2022-08-03T04:35:54.771Z,93.56
2022-08-03T04:36:46.077Z,93.06
2022-08-03T04:37:46.062Z,92.44
2022-08-03T04:38:46.050Z,91.90
2022-08-03T04:39:46.034Z,91.19
2022-08-03T04:40:46.022Z,91.29
2022-08-03T04:42:06.913Z,91.49
2022-08-03T04:42:45.996Z,91.49
2022-08-03T04:43:45.981Z,91.08
2022-08-03T04:44:45.973Z,91.19
2022-08-03T04:45:45.954Z,91.08
2022-08-03T04:46:46.766Z,90.99
2022-08-03T04:47:45.927Z,90.88
2022-08-03T04:48:45.916Z,90.64
2022-08-03T04:49:45.900Z,90.74
2022-08-03T04:50:45.890Z,90.74
2022-08-03T04:51:45.874Z,90.33
2022-08-03T04:52:45.865Z,90.84
2022-08-03T04:53:45.849Z,90.94
2022-08-03T04:54:50.205Z,90.94
2022-08-03T04:55:45.822Z,90.74
2022-08-03T04:56:45.818Z,90.84
2022-08-03T04:57:45.795Z,91.04
2022-08-03T04:58:45.783Z,91.24
2022-08-03T04:59:45.770Z,90.94
2022-08-03T05:00:45.892Z,90.60
2022-08-03T05:01:45.819Z,90.29
2022-08-03T05:02:45.737Z,90.29
2022-08-03T05:03:45.716Z,90.60
2022-08-03T05:04:45.706Z,90.55
2022-08-03T05:05:50.261Z,90.45
2022-08-03T05:06:48.107Z,90.55
2022-08-03T05:07:45.664Z,90.11
2022-08-03T05:08:47.108Z,89.70
2022-08-03T05:09:52.263Z,89.20
2022-08-03T05:10:45.627Z,88.79
2022-08-03T05:11:45.614Z,88.34
2022-08-03T05:12:45.600Z,87.84
2022-08-03T05:13:45.588Z,87.74
2022-08-03T05:14:45.574Z,87.54
2022-08-03T05:15:45.558Z,87.43
2022-08-03T05:16:45.549Z,87.74
2022-08-03T05:17:45.532Z,87.84
2022-08-03T05:18:45.521Z,87.94
2022-08-03T05:19:45.505Z,87.84
2022-08-03T05:20:45.493Z,87.70
2022-08-03T05:21:51.825Z,87.54
2022-08-03T05:22:45.468Z,87.64
2022-08-03T05:23:45.453Z,87.64
2022-08-03T05:24:45.441Z,87.59
2022-08-03T05:25:46.176Z,87.59
2022-08-03T05:26:45.414Z,86.99
2022-08-03T05:27:45.400Z,87.19
2022-08-03T05:28:51.285Z,86.65
2022-08-03T05:29:45.375Z,86.24
2022-08-03T05:30:45.359Z,85.90
2022-08-03T05:31:45.348Z,85.60
2022-08-03T05:32:45.333Z,85.15
2022-08-03T05:33:45.324Z,83.96
2022-08-03T05:34:45.307Z,81.90
2022-08-03T05:35:57.333Z,81.43
2022-08-03T05:36:45.282Z,79.04
2022-08-03T05:37:54.652Z,77.79
2022-08-03T05:38:45.261Z,76.51
2022-08-03T05:39:45.257Z,75.04
2022-08-03T05:40:56.928Z,73.10
2022-08-03T05:41:45.219Z,72.09
2022-08-03T05:42:45.203Z,72.69
2022-08-03T05:43:45.191Z,72.66
2022-08-03T05:44:45.177Z,71.63
2022-08-03T05:45:45.171Z,70.62
2022-08-03T05:46:45.151Z,70.59
2022-08-03T05:47:45.139Z,70.19
2022-08-03T05:48:45.129Z,69.02
2022-08-03T05:49:45.116Z,68.02
2022-08-03T05:50:45.099Z,69.45
2022-08-03T05:51:45.086Z,67.99
2022-08-03T05:52:45.071Z,68.26
2022-08-03T05:53:45.063Z,67.59
2022-08-03T05:55:45.035Z,65.33
2022-08-03T05:56:45.020Z,65.96
2022-08-03T05:57:45.010Z,66.43
2022-08-03T05:58:45.003Z,62.84
2022-08-03T05:59:53.960Z,62.90
2022-08-03T06:00:44.968Z,63.81
2022-08-03T06:01:45.020Z,62.38
2022-08-03T06:02:44.942Z,62.68
2022-08-03T06:03:44.942Z,61.72
2022-08-03T06:04:44.915Z,61.02
2022-08-03T06:05:55.579Z,59.60
2022-08-03T06:06:44.891Z,60.76
2022-08-03T06:07:44.880Z,61.28
2022-08-03T06:08:44.870Z,62.84
2022-08-03T06:10:34.212Z,62.84
2022-08-03T06:10:44.839Z,62.60
2022-08-03T06:11:44.828Z,62.81
2022-08-03T06:12:44.813Z,62.25
2022-08-03T06:13:44.801Z,60.72
2022-08-03T06:14:44.789Z,59.60
2022-08-03T06:15:44.777Z,59.50
2022-08-03T06:16:44.762Z,59.47
2022-08-03T06:17:44.753Z,58.68
2022-08-03T06:18:44.737Z,58.18
2022-08-03T06:19:44.726Z,59.86
2022-08-03T06:20:44.712Z,61.18
2022-08-03T06:21:44.701Z,60.43
2022-08-03T06:22:50.672Z,59.17
2022-08-03T06:23:55.037Z,57.73
2022-08-03T06:24:48.165Z,57.43
2022-08-03T06:25:44.650Z,57.11
2022-08-03T06:26:44.636Z,56.48
2022-08-03T06:27:44.625Z,55.56
2022-08-03T06:28:51.916Z,55.14
2022-08-03T06:29:46.599Z,54.81
2022-08-03T06:30:44.584Z,53.10
2022-08-03T06:31:44.575Z,54.52
2022-08-03T06:32:44.560Z,53.57
2022-08-03T06:34:30.402Z,52.56
2022-08-03T06:34:45.554Z,52.06
2022-08-03T06:35:45.202Z,51.74
2022-08-03T06:36:44.512Z,50.50
2022-08-03T06:37:44.499Z,51.67
2022-08-03T06:38:44.486Z,53.20
2022-08-03T06:39:44.476Z,52.68
2022-08-03T06:40:44.461Z,51.81
2022-08-03T06:41:44.819Z,50.68
2022-08-03T06:42:44.441Z,49.15
2022-08-03T06:44:03.904Z,48.75
2022-08-03T06:44:44.413Z,48.21
2022-08-03T06:45:44.402Z,46.88
2022-08-03T06:46:44.387Z,47.21
2022-08-03T06:47:44.598Z,47.10
2022-08-03T06:48:44.362Z,46.69
2022-08-03T06:49:44.472Z,46.00
2022-08-03T06:50:44.335Z,47.86
2022-08-03T06:52:04.186Z,48.04
2022-08-03T06:52:44.311Z,47.10
2022-08-03T06:53:44.301Z,46.56
2022-08-03T06:54:44.287Z,46.08
2022-08-03T06:55:44.276Z,45.76
2022-08-03T06:56:44.262Z,44.75
2022-08-03T06:57:44.252Z,44.63
2022-08-03T06:58:44.238Z,44.53
2022-08-03T07:00:08.894Z,44.24
2022-08-03T07:00:44.213Z,43.60
2022-08-03T07:01:44.281Z,43.33
2022-08-03T07:02:44.187Z,43.75
2022-08-03T07:03:47.581Z,43.75
2022-08-03T07:04:44.162Z,44.02
2022-08-03T07:05:44.150Z,44.12
2022-08-03T07:06:44.136Z,44.04
2022-08-03T07:07:44.126Z,43.82
2022-08-03T07:08:44.111Z,43.92
2022-08-03T07:09:56.861Z,43.53
2022-08-03T07:10:46.086Z,42.99
2022-08-03T07:11:44.078Z,43.02
2022-08-03T07:12:55.668Z,42.90
2022-08-03T07:13:46.050Z,41.95
2022-08-03T07:14:44.035Z,41.13
2022-08-03T07:15:55.458Z,41.44
2022-08-03T07:16:46.010Z,41.05
2022-08-03T07:17:44.003Z,40.91
2022-08-03T07:18:43.987Z,40.20
2022-08-03T07:19:43.981Z,39.39
2022-08-03T07:20:43.961Z,38.78
2022-08-03T07:21:43.953Z,38.69
2022-08-03T07:22:43.939Z,38.69
2022-08-03T07:23:43.926Z,38.15
2022-08-03T07:24:43.912Z,37.55
2022-08-03T07:25:43.901Z,37.76
2022-08-03T07:26:43.889Z,37.76
2022-08-03T07:27:43.879Z,37.76
2022-08-03T07:28:43.865Z,38.08
2022-08-03T07:29:43.855Z,38.08
2022-08-03T07:30:43.839Z,37.40
2022-08-03T07:31:43.831Z,37.31
2022-08-03T07:32:50.458Z,38.14
2022-08-03T07:33:43.805Z,38.43
2022-08-03T07:34:43.793Z,38.43
2022-08-03T07:35:43.780Z,38.14
2022-08-03T07:36:43.766Z,38.33
2022-08-03T07:37:54.115Z,38.86
2022-08-03T07:38:43.742Z,39.05
2022-08-03T07:39:43.741Z,39.05
2022-08-03T07:40:46.269Z,38.64
2022-08-03T07:41:43.708Z,38.33
2022-08-03T07:42:43.695Z,38.43
2022-08-03T07:43:43.684Z,38.33
2022-08-03T07:44:43.671Z,38.04
2022-08-03T07:45:43.662Z,37.41
2022-08-03T07:46:43.648Z,36.79
2022-08-03T07:47:43.640Z,36.40
2022-08-03T07:48:45.629Z,36.70
2022-08-03T07:50:09.346Z,36.91
2022-08-03T07:51:09.330Z,36.81
2022-08-03T07:52:09.320Z,36.81
2022-08-03T07:53:09.308Z,36.19
2022-08-03T07:54:09.299Z,35.27
2022-08-03T07:55:09.288Z,35.08
2022-08-03T07:56:11.297Z,35.82
2022-08-03T07:57:09.261Z,36.82
2022-08-03T07:58:09.256Z,37.43
2022-08-03T07:59:09.238Z,36.63
2022-08-03T08:00:09.228Z,36.71
2022-08-03T08:01:09.321Z,35.99
2022-08-03T08:02:09.205Z,35.49
2022-08-03T08:03:09.190Z,34.68
2022-08-03T08:04:09.180Z,34.38
2022-08-03T08:05:09.169Z,34.19
2022-08-03T08:06:09.155Z,33.88
2022-08-03T08:07:09.141Z,33.67
2022-08-03T08:08:09.130Z,33.36
2022-08-03T08:09:09.126Z,33.36
2022-08-03T08:10:09.108Z,33.26
2022-08-03T08:11:09.093Z,33.16
2022-08-03T08:12:15.126Z,32.84
2022-08-03T08:13:09.070Z,32.44
2022-08-03T08:14:09.061Z,31.84
2022-08-03T08:15:09.048Z,31.53
2022-08-03T08:16:09.038Z,31.15
2022-08-03T08:17:09.025Z,31.75
2022-08-03T08:18:09.014Z,31.97
2022-08-03T08:19:09.001Z,31.97
2022-08-03T08:20:08.993Z,31.87
2022-08-03T08:21:08.978Z,31.65
2022-08-03T08:22:08.968Z,31.75
2022-08-03T08:23:37.013Z,31.75
2022-08-03T08:24:15.268Z,30.95
2022-08-03T08:25:10.932Z,31.25
2022-08-03T08:26:08.923Z,32.81
2022-08-03T08:27:08.909Z,33.29
2022-08-03T08:28:29.014Z,32.87
2022-08-03T08:29:08.887Z,32.58
2022-08-03T08:30:11.608Z,32.06
2022-08-03T08:31:08.864Z,31.45
2022-08-03T08:32:08.854Z,30.72
2022-08-03T08:33:22.180Z,30.13
2022-08-03T08:34:08.832Z,30.13
2022-08-03T08:35:08.819Z,30.13
2022-08-03T08:36:13.327Z,29.82
2022-08-03T08:37:08.798Z,30.23
2022-08-03T08:38:08.790Z,30.11
2022-08-03T08:39:08.776Z,29.69
2022-08-03T08:40:08.773Z,29.19
2022-08-03T08:41:08.756Z,29.18
2022-08-03T08:42:08.747Z,28.89
2022-08-03T08:43:08.733Z,29.21
2022-08-03T08:44:08.724Z,29.11
2022-08-03T08:45:08.709Z,29.01
2022-08-03T08:46:08.705Z,28.39
2022-08-03T08:47:08.685Z,28.30
2022-08-03T08:48:08.702Z,28.91
2022-08-03T08:49:08.741Z,29.01
2022-08-03T08:50:27.180Z,28.80
2022-08-03T08:51:10.638Z,29.29
2022-08-03T08:52:25.355Z,29.21
2022-08-03T08:53:09.611Z,30.01
2022-08-03T08:54:08.606Z,29.60
2022-08-03T08:55:08.592Z,29.19
2022-08-03T08:56:08.582Z,29.11
2022-08-03T08:57:21.277Z,29.11
2022-08-03T08:58:08.561Z,28.89
2022-08-03T08:59:08.549Z,28.70
2022-08-03T09:00:08.541Z,28.70
2022-08-03T09:01:08.663Z,28.71
2022-08-03T09:02:08.518Z,29.01
2022-08-03T09:03:08.506Z,28.50
2022-08-03T09:04:08.497Z,28.20
2022-08-03T09:05:08.485Z,28.22
2022-08-03T09:06:08.475Z,31.09
2022-08-03T09:07:19.971Z,32.17
2022-08-03T09:08:10.454Z,32.29
2022-08-03T09:09:08.442Z,31.95
2022-08-03T09:10:12.853Z,30.95
2022-08-03T09:11:08.419Z,30.35
2022-08-03T09:12:35.364Z,29.84
2022-08-03T09:13:08.397Z,29.22
2022-08-03T09:14:08.391Z,28.50
2022-08-03T09:15:16.984Z,28.61
2022-08-03T09:16:08.369Z,28.19
2022-08-03T09:17:08.355Z,27.29
2022-08-03T09:18:08.345Z,26.62
2022-08-03T09:19:08.333Z,29.99
2022-08-03T09:20:08.324Z,31.80
2022-08-03T09:21:29.713Z,31.50
2022-08-03T09:22:08.301Z,30.49
2022-08-03T09:23:24.920Z,29.47
2022-08-03T09:24:16.538Z,28.66
2022-08-03T09:25:23.747Z,29.28
2022-08-03T09:26:10.259Z,29.46
2022-08-03T09:27:08.246Z,28.35
2022-08-03T09:28:08.237Z,27.34
2022-08-03T09:29:13.880Z,26.64
2022-08-03T09:30:33.450Z,26.44
2022-08-03T09:31:10.204Z,26.35
2022-08-03T09:32:08.195Z,26.35
2022-08-03T09:33:08.538Z,26.35
2022-08-03T09:34:08.177Z,25.84
2022-08-03T09:35:09.533Z,25.62
2022-08-03T09:36:08.152Z,25.04
2022-08-03T09:37:08.141Z,25.04
2022-08-03T09:38:11.874Z,25.24
2022-08-03T09:39:08.117Z,25.97
2022-08-03T09:40:08.391Z,25.94
2022-08-03T09:41:08.095Z,25.23
2022-08-03T09:42:08.086Z,25.10
2022-08-03T09:43:08.074Z,24.81
2022-08-03T09:44:08.066Z,24.60
2022-08-03T09:45:08.052Z,24.52
2022-08-03T09:46:08.045Z,24.72
2022-08-03T09:47:08.031Z,25.12
2022-08-03T09:48:08.020Z,25.53
2022-08-03T09:49:11.543Z,25.42
2022-08-03T09:50:08.000Z,26.04
2022-08-03T09:51:14.313Z,25.94
2022-08-03T09:52:32.683Z,25.72
2022-08-03T09:53:09.965Z,25.61
2022-08-03T09:54:16.318Z,26.33
2022-08-03T09:56:35.922Z,26.64
2022-08-03T09:57:07.923Z,28.96
2022-08-03T09:58:07.913Z,28.56
2022-08-03T09:59:07.901Z,28.34
2022-08-03T10:00:08.549Z,28.46
2022-08-03T10:01:07.980Z,29.57
2022-08-03T10:02:07.873Z,29.17
2022-08-03T10:03:07.857Z,30.60
2022-08-03T10:04:07.849Z,31.10
2022-08-03T10:05:07.836Z,29.88
2022-08-03T10:06:07.827Z,29.07
2022-08-03T10:07:07.815Z,29.07
2022-08-03T10:08:07.806Z,28.14
2022-08-03T10:09:07.795Z,27.34
2022-08-03T10:10:31.110Z,26.82
2022-08-03T10:11:09.771Z,26.22
2022-08-03T10:12:07.762Z,25.81
2022-08-03T10:13:07.752Z,25.50
2022-08-03T10:14:07.748Z,25.20
2022-08-03T10:15:07.728Z,25.09
2022-08-03T10:16:23.556Z,25.52
2022-08-03T10:17:09.707Z,27.22
2022-08-03T10:18:07.698Z,27.03
2022-08-03T10:19:07.696Z,26.71
2022-08-03T10:20:07.677Z,26.51
2022-08-03T10:21:07.665Z,26.41
2022-08-03T10:22:07.657Z,26.11
2022-08-03T10:23:07.643Z,26.01
2022-08-03T10:24:07.637Z,25.90
2022-08-03T10:25:07.622Z,25.70
2022-08-03T10:26:07.613Z,25.81
2022-08-03T10:27:07.599Z,25.70
2022-08-03T10:28:07.590Z,25.70
2022-08-03T10:29:07.577Z,25.79
2022-08-03T10:30:07.570Z,25.90
2022-08-03T10:31:07.557Z,26.09
2022-08-03T10:32:07.554Z,25.90
2022-08-03T10:33:12.317Z,25.90
2022-08-03T10:34:07.524Z,25.70
2022-08-03T10:35:19.566Z,25.81
2022-08-03T10:36:07.504Z,25.68
2022-08-03T10:37:07.492Z,25.28
2022-08-03T10:38:07.481Z,24.99
2022-08-03T10:39:16.397Z,24.89
2022-08-03T10:40:07.460Z,24.96
2022-08-03T10:41:07.448Z,24.46
2022-08-03T10:42:10.768Z,23.87
2022-08-03T10:43:07.432Z,23.68
2022-08-03T10:44:07.434Z,23.87
2022-08-03T10:45:07.407Z,24.47
2022-08-03T10:46:07.401Z,25.78
2022-08-03T10:47:07.386Z,25.70
2022-08-03T10:48:07.373Z,26.09
2022-08-03T10:49:07.435Z,26.08
2022-08-03T10:50:07.353Z,25.89
2022-08-03T10:51:07.344Z,25.48
2022-08-03T10:52:12.905Z,25.07
2022-08-03T10:53:07.320Z,25.28
2022-08-03T10:54:07.309Z,24.87
2022-08-03T10:55:10.027Z,24.18
2022-08-03T10:56:07.286Z,24.38
2022-08-03T10:57:23.077Z,24.47
2022-08-03T10:58:11.144Z,24.38
2022-08-03T10:59:08.838Z,24.49
2022-08-03T11:00:07.458Z,25.21
2022-08-03T11:01:07.398Z,25.72
2022-08-03T11:02:07.222Z,25.31
2022-08-03T11:03:07.232Z,25.52
2022-08-03T11:04:10.956Z,26.01
2022-08-03T11:05:07.191Z,25.82
2022-08-03T11:06:07.179Z,25.20
2022-08-03T11:07:07.172Z,24.82
2022-08-03T11:08:07.157Z,25.01
2022-08-03T11:09:07.151Z,26.25
2022-08-03T11:10:10.516Z,27.98
2022-08-03T11:11:07.133Z,28.68
2022-08-03T11:12:07.115Z,28.23
2022-08-03T11:13:07.107Z,27.54
2022-08-03T11:14:07.095Z,27.53
2022-08-03T11:15:07.317Z,27.02
2022-08-03T11:16:10.923Z,26.29
2022-08-03T11:17:07.066Z,25.29
2022-08-03T11:18:07.053Z,24.78
2022-08-03T11:19:07.042Z,24.26
2022-08-03T11:20:07.029Z,23.68
2022-08-03T11:21:07.027Z,23.57
2022-08-03T11:22:07.009Z,23.76
2022-08-03T11:23:06.998Z,24.06
2022-08-03T11:24:07.151Z,23.77
2022-08-03T11:25:06.977Z,23.98
2022-08-03T11:26:06.965Z,24.18
2022-08-03T11:27:06.958Z,24.27
2022-08-03T11:28:06.946Z,24.00
2022-08-03T11:29:06.934Z,24.21
2022-08-03T11:30:06.922Z,24.20
2022-08-03T11:31:06.911Z,23.88
2022-08-03T11:32:06.900Z,23.88
2022-08-03T11:33:06.899Z,23.79
2022-08-03T11:34:06.880Z,23.69
2022-08-03T11:35:06.872Z,23.79
2022-08-03T11:36:06.861Z,23.48
2022-08-03T11:37:06.848Z,23.48
2022-08-03T11:38:06.835Z,23.38
2022-08-03T11:39:06.826Z,23.39
2022-08-03T11:40:06.814Z,23.58
2022-08-03T11:41:06.817Z,23.39
2022-08-03T11:42:06.793Z,23.59
2022-08-03T11:43:06.784Z,23.99
2022-08-03T11:44:06.772Z,24.00
2022-08-03T11:45:06.763Z,23.70
2022-08-03T11:46:06.749Z,23.39
2022-08-03T11:47:06.741Z,23.08
2022-08-03T11:48:06.728Z,22.78
2022-08-03T11:49:10.466Z,22.78
2022-08-03T11:50:06.715Z,22.88
2022-08-03T11:51:06.703Z,22.38
2022-08-03T11:52:06.685Z,22.09
2022-08-03T11:53:06.677Z,22.09
2022-08-03T11:54:06.673Z,22.69
2022-08-03T11:55:06.654Z,22.99
2022-08-03T11:56:06.642Z,23.12
2022-08-03T11:57:06.635Z,23.90
2022-08-03T11:59:16.884Z,23.91
2022-08-03T11:59:20.582Z,23.90
2022-08-03T12:00:08.607Z,24.71
2022-08-03T12:01:06.591Z,24.31
2022-08-03T12:02:06.580Z,24.00
2022-08-03T12:03:06.710Z,23.50
2022-08-03T12:04:06.565Z,22.89
2022-08-03T12:05:06.549Z,23.90
2022-08-03T12:06:06.538Z,23.90
2022-08-03T12:07:06.529Z,25.34
2022-08-03T12:08:07.131Z,26.14
2022-08-03T12:09:06.506Z,25.83
2022-08-03T12:10:06.492Z,25.13
2022-08-03T12:11:06.488Z,24.52
2022-08-03T12:12:06.470Z,24.00
2022-08-03T12:14:44.468Z,23.71
2022-08-03T12:14:48.748Z,23.91
2022-08-03T12:15:06.439Z,24.02
2022-08-03T12:16:06.428Z,24.63
2022-08-03T12:17:06.422Z,24.43
2022-08-03T12:18:06.407Z,24.73
2022-08-03T12:19:06.403Z,25.65
2022-08-03T12:20:06.389Z,25.84
2022-08-03T12:21:06.378Z,25.14
2022-08-03T12:22:06.364Z,25.05
2022-08-03T12:23:06.357Z,24.73
2022-08-03T12:24:06.343Z,24.93
2022-08-03T12:25:06.333Z,24.52
2022-08-03T12:26:06.321Z,24.01
2022-08-03T12:27:06.314Z,23.43
2022-08-03T12:28:06.306Z,23.94
2022-08-03T12:29:06.292Z,23.94
2022-08-03T12:30:06.279Z,23.74
2022-08-03T12:31:06.271Z,23.84
2022-08-03T12:32:06.256Z,23.52
2022-08-03T12:33:06.248Z,23.51
2022-08-03T12:34:06.234Z,23.02
2022-08-03T12:35:06.232Z,22.52
2022-08-03T12:36:06.218Z,22.82
2022-08-03T12:37:20.302Z,23.12
2022-08-03T12:38:06.191Z,22.61
2022-08-03T12:39:06.184Z,22.52
2022-08-03T12:40:10.007Z,22.12
2022-08-03T12:41:06.166Z,22.12
2022-08-03T12:42:06.148Z,21.83
2022-08-03T12:43:06.139Z,22.12
2022-08-03T12:44:06.128Z,22.03
2022-08-03T12:45:06.118Z,22.53
2022-08-03T12:46:06.106Z,22.13
2022-08-03T12:47:06.096Z,21.82
2022-08-03T12:48:06.083Z,21.41
2022-08-03T12:49:06.130Z,21.52
2022-08-03T12:50:06.112Z,21.32
2022-08-03T12:51:06.056Z,21.41
2022-08-03T12:52:07.775Z,21.31
2022-08-03T12:53:08.815Z,21.31
2022-08-03T12:54:06.022Z,21.23
2022-08-03T12:55:06.011Z,21.32
2022-08-03T12:56:06.397Z,21.33